Redding Center, Connecticut
Current Conditions -  °F | °C
As of 7:53 PM on Wednesday 17 Dec 2014 (Local Time) from KDXR Reporting Station
Broken Clouds Broken Clouds  
Wind Chill: 36°   Ceiling: 9000
Heat Index: 40°   Visibility: 10mi
Dew Point: 31°   Wind: 6mph
Humidity: 70%   Direction: 270°W
Pressure: 29.85"   Gusts: NA
Location:  41.3°N, 73.38°W
Report Text: KDXR 180053Z 27005KT 10SM SCT065 BKN090 04/M01 A2985 RMK AO2 SLP109 T00441006
Loading
Personal Weather Stations






























Interactive Weather Map New forecast layout! Learn more

10-Day Weather Forecast

Advertisements
Track Severe Weather on mobile